TimePST,TemperatureF,Dew PointF,Humidity,Sea Level PressureIn,VisibilityMPH,Wind Direction,Wind SpeedMPH,Gust SpeedMPH,PrecipitationIn,Events,Conditions,WindDirDegrees,DateUTC
12:55 AM,52.5,52.2,99,30.00,10.0,SW,8.1,-,N/A,,Overcast,230,2012-11-18 08:55:00
2:55 AM,52.3,52.0,99,30.32,10.0,WSW,8.1,-,N/A,,Overcast,240,2012-11-18 10:55:00
3:55 AM,51.3,51.4,100,30.03,10.0,SW,9.2,-,N/A,,Mostly Cloudy,230,2012-11-18 11:55:00
4:55 AM,46.9,46.8,99,30.05,10.0,WSW,6.9,-,N/A,,Partly Cloudy,240,2012-11-18 12:55:00
6:55 AM,45.7,45.7,100,30.07,10.0,West,3.5,-,N/A,,Clear,260,2012-11-18 14:55:00
7:58 AM,48.4,48.0,99,30.09,10.0,SW,6.9,-,N/A,,Clear,230,2012-11-18 15:58:00
8:55 AM,53.2,47.3,80,30.10,10.0,WSW,6.9,-,N/A,,Clear,250,2012-11-18 16:55:00
9:55 AM,55.9,47.1,72,30.09,10.0,WSW,8.1,-,N/A,,Clear,240,2012-11-18 17:55:00
10:55 AM,59.0,48.2,67,30.13,10.0,WSW,10.4,-,N/A,,Clear,240,2012-11-18 18:55:00
11:55 AM,60.6,46.8,60,30.12,10.0,WSW,12.7,-,N/A,,Clear,250,2012-11-18 19:55:00
12:55 PM,61.3,42.6,50,30.11,10.0,WSW,8.1,-,N/A,,Clear,240,2012-11-18 20:55:00
1:55 PM,60.6,41.2,49,30.12,10.0,WSW,6.9,-,N/A,,Overcast,250,2012-11-18 21:55:00
2:31 PM,60.6,41.2,49,30.12,10.0,SW,3.5,-,N/A,,Mostly Cloudy,230,2012-11-18 22:31:00
2:55 PM,60.1,42.6,53,30.11,10.0,WSW,5.8,-,N/A,,Mostly Cloudy,240,2012-11-18 22:55:00
3:55 PM,59.0,43.2,56,30.12,10.0,West,6.9,-,N/A,,Mostly Cloudy,260,2012-11-18 23:55:00
4:55 PM,55.9,46.9,72,30.14,10.0,WNW,5.8,-,N/A,,Clear,290,2012-11-19 00:55:00
5:55 PM,55.4,46.8,73,30.14,10.0,SW,4.6,-,N/A,,Clear,230,2012-11-19 01:55:00
6:55 PM,54.1,49.3,84,30.14,-9999.0,South,4.6,-,N/A,,Clear,170,2012-11-19 02:55:00
6:58 PM,54.1,49.3,84,30.16,10.0,South,4.6,-,N/A,,Clear,180,2012-11-19 02:58:00
7:58 PM,54.5,49.6,84,30.16,10.0,Calm,Calm,-,N/A,,Clear,0,2012-11-19 03:58:00
8:58 PM,54.0,49.5,85,30.18,10.0,West,3.5,-,N/A,,Mostly Cloudy,280,2012-11-19 04:58:00
9:58 PM,53.1,52.2,97,30.19,10.0,Calm,Calm,-,N/A,,Overcast,0,2012-11-19 05:58:00
10:58 PM,52.3,51.4,97,30.19,10.0,SE,4.6,-,N/A,,Scattered Clouds,130,2012-11-19 06:58:00
11:58 PM,50.2,50.0,99,30.19,10.0,Calm,Calm,-,N/A,,Overcast,0,2012-11-19 07:58:00